createdAt,value
2018-08-17T00:01:36.034Z,24.70
2018-08-17T00:04:09.474Z,24.70
2018-08-17T00:06:42.898Z,24.70
2018-08-17T00:09:16.346Z,24.60
2018-08-17T00:11:49.783Z,24.40
2018-08-17T00:14:23.224Z,24.20
2018-08-17T00:16:56.637Z,24.20
2018-08-17T00:19:30.093Z,24.30
2018-08-17T00:22:03.607Z,24.30
2018-08-17T00:24:37.030Z,24.30
2018-08-17T00:27:10.470Z,24.30
2018-08-17T00:29:43.910Z,24.30
2018-08-17T00:32:17.543Z,24.20
2018-08-17T00:34:51.002Z,24.20
2018-08-17T00:37:24.440Z,24.20
2018-08-17T00:39:57.874Z,24.00
2018-08-17T00:42:31.316Z,24.10
2018-08-17T00:45:05.207Z,24.00
2018-08-17T00:47:38.670Z,24.10
2018-08-17T00:50:12.159Z,24.10
2018-08-17T00:52:45.612Z,24.10
2018-08-17T00:55:19.066Z,24.00
2018-08-17T00:57:52.495Z,24.10
2018-08-17T01:00:25.955Z,24.00
2018-08-17T01:02:59.382Z,24.00
2018-08-17T01:05:32.827Z,23.90
2018-08-17T01:08:06.513Z,23.80
2018-08-17T01:10:39.979Z,23.70
2018-08-17T01:13:14.007Z,23.40
2018-08-17T01:15:47.460Z,23.20
2018-08-17T01:18:20.933Z,23.20
2018-08-17T01:20:54.362Z,23.30
2018-08-17T01:23:27.795Z,23.30
2018-08-17T01:26:01.247Z,23.40
2018-08-17T01:28:34.675Z,23.30
2018-08-17T01:31:08.167Z,23.40
2018-08-17T01:33:41.576Z,23.40
2018-08-17T01:36:15.019Z,23.50
2018-08-17T01:38:48.435Z,23.50
2018-08-17T01:41:21.887Z,23.50
2018-08-17T01:43:55.311Z,23.50
2018-08-17T01:46:28.742Z,23.50
2018-08-17T01:49:02.210Z,23.50
2018-08-17T01:51:35.667Z,23.40
2018-08-17T01:54:09.130Z,23.40
2018-08-17T01:56:42.559Z,23.40
2018-08-17T01:59:15.970Z,23.30
2018-08-17T02:01:49.927Z,23.30
2018-08-17T02:04:23.361Z,23.30
2018-08-17T02:06:56.821Z,23.30
2018-08-17T02:09:30.225Z,23.30
2018-08-17T02:12:03.678Z,23.30
2018-08-17T02:14:37.121Z,23.30
2018-08-17T02:17:10.552Z,23.20
2018-08-17T02:19:43.966Z,23.30
2018-08-17T02:22:17.407Z,23.20
2018-08-17T02:24:50.825Z,23.20
2018-08-17T02:27:24.264Z,23.10
2018-08-17T02:29:57.689Z,23.00
2018-08-17T02:32:31.148Z,23.00
2018-08-17T02:35:05.252Z,23.00
2018-08-17T02:37:38.683Z,23.00
2018-08-17T02:40:12.111Z,23.00
2018-08-17T02:42:45.551Z,23.00
2018-08-17T02:45:18.985Z,23.00
2018-08-17T02:47:52.413Z,22.90
2018-08-17T02:50:25.859Z,22.90
2018-08-17T02:52:59.291Z,22.80
2018-08-17T02:55:32.710Z,22.80
2018-08-17T02:58:06.202Z,22.70
2018-08-17T03:00:39.627Z,22.70
2018-08-17T03:03:13.074Z,22.50
2018-08-17T03:05:46.543Z,22.40
2018-08-17T03:08:19.995Z,22.30
2018-08-17T03:10:53.407Z,21.90
2018-08-17T03:13:26.827Z,21.70
2018-08-17T03:16:00.258Z,21.70
2018-08-17T03:18:33.719Z,22.00
2018-08-17T03:21:07.138Z,22.20
2018-08-17T03:23:40.563Z,22.20
2018-08-17T03:26:14.024Z,22.30
2018-08-17T03:28:47.446Z,22.10
2018-08-17T03:31:20.886Z,22.00
2018-08-17T03:33:54.821Z,22.10
2018-08-17T03:36:28.259Z,22.10
2018-08-17T03:39:02.016Z,22.00
2018-08-17T03:41:35.455Z,21.80
2018-08-17T03:44:09.153Z,21.60
2018-08-17T03:46:42.590Z,21.80
2018-08-17T03:49:16.027Z,21.80
2018-08-17T03:51:49.507Z,21.70
2018-08-17T03:54:22.996Z,21.50
2018-08-17T03:57:01.428Z,21.50
2018-08-17T03:59:34.870Z,21.50
2018-08-17T04:02:08.330Z,21.60
2018-08-17T04:04:41.791Z,21.60
2018-08-17T04:07:15.216Z,21.60
2018-08-17T04:09:48.663Z,21.70
2018-08-17T04:12:22.125Z,21.70
2018-08-17T04:14:55.571Z,21.70
2018-08-17T04:17:29.003Z,21.60
2018-08-17T04:20:02.455Z,21.60
2018-08-17T04:22:35.892Z,21.60
2018-08-17T04:25:09.365Z,21.60
2018-08-17T04:27:42.784Z,21.70
2018-08-17T04:30:16.272Z,21.60
2018-08-17T04:32:49.703Z,21.70
2018-08-17T04:35:23.177Z,21.70
2018-08-17T04:37:56.595Z,21.70
2018-08-17T04:40:30.039Z,21.60
2018-08-17T04:43:03.467Z,21.50
2018-08-17T04:45:36.924Z,21.40
2018-08-17T04:48:10.471Z,21.40
2018-08-17T04:50:43.940Z,20.90
2018-08-17T04:53:17.388Z,21.00
2018-08-17T04:55:50.826Z,21.10
2018-08-17T04:58:24.256Z,21.30
2018-08-17T05:00:58.116Z,21.20
2018-08-17T05:03:31.732Z,21.20
2018-08-17T05:06:05.215Z,21.30
2018-08-17T05:08:38.668Z,21.30
2018-08-17T05:11:12.106Z,21.30
2018-08-17T05:13:45.525Z,21.30
2018-08-17T05:16:19.089Z,21.40
2018-08-17T05:18:52.516Z,21.40
2018-08-17T05:21:25.987Z,21.40
2018-08-17T05:23:59.426Z,21.40
2018-08-17T05:26:32.870Z,21.50
2018-08-17T05:29:06.378Z,21.40
2018-08-17T05:31:39.873Z,21.50
2018-08-17T05:34:13.419Z,21.60
2018-08-17T05:36:46.828Z,21.70
2018-08-17T05:39:20.303Z,21.80
2018-08-17T05:41:53.783Z,21.90
2018-08-17T05:44:27.227Z,22.00
2018-08-17T05:47:00.664Z,22.00
2018-08-17T05:49:34.091Z,21.90
2018-08-17T05:52:07.577Z,22.00
2018-08-17T05:54:40.999Z,22.20
2018-08-17T05:57:14.468Z,22.40
2018-08-17T05:59:47.894Z,22.40
2018-08-17T06:02:21.380Z,22.60
2018-08-17T06:04:54.818Z,22.50
2018-08-17T06:07:28.275Z,22.60
2018-08-17T06:10:01.711Z,22.70
2018-08-17T06:12:35.275Z,22.70
2018-08-17T06:15:08.848Z,22.80
2018-08-17T06:17:42.296Z,22.90
2018-08-17T06:20:15.775Z,23.00
2018-08-17T06:22:49.215Z,23.10
2018-08-17T06:25:22.682Z,23.20
2018-08-17T06:27:56.165Z,23.30
2018-08-17T06:30:29.667Z,23.40
2018-08-17T06:33:03.174Z,23.50
2018-08-17T06:35:36.696Z,23.40
2018-08-17T06:38:10.157Z,23.50
2018-08-17T06:40:43.649Z,23.60
2018-08-17T06:43:17.099Z,23.70
2018-08-17T06:45:50.590Z,23.80
2018-08-17T06:48:24.034Z,23.90
2018-08-17T06:50:57.579Z,23.90
2018-08-17T06:53:30.988Z,23.90
2018-08-17T06:56:04.478Z,24.00
2018-08-17T06:58:37.920Z,24.00
2018-08-17T07:01:11.372Z,24.10
2018-08-17T07:03:44.822Z,24.20
2018-08-17T07:06:18.288Z,24.30
2018-08-17T07:08:51.793Z,24.40
2018-08-17T07:11:25.197Z,24.50
2018-08-17T07:13:58.630Z,24.60
2018-08-17T07:16:32.101Z,24.70
2018-08-17T07:19:05.548Z,24.70
2018-08-17T07:21:39.103Z,24.80
2018-08-17T07:24:12.466Z,24.80
2018-08-17T07:26:45.912Z,24.80
2018-08-17T07:29:19.328Z,24.90
2018-08-17T07:31:52.811Z,25.00
2018-08-17T07:34:26.259Z,24.90
2018-08-17T07:36:59.704Z,25.00
2018-08-17T07:39:33.248Z,25.10
2018-08-17T07:42:06.752Z,25.10
2018-08-17T07:44:40.335Z,25.10
2018-08-17T07:47:13.817Z,25.00
2018-08-17T07:49:47.234Z,25.10
2018-08-17T07:52:20.684Z,25.40
2018-08-17T07:54:54.100Z,25.50
2018-08-17T07:57:27.586Z,25.50
2018-08-17T08:00:01.010Z,25.70
2018-08-17T08:02:34.907Z,25.50
2018-08-17T08:05:09.439Z,25.50
2018-08-17T08:07:42.888Z,25.50
2018-08-17T08:10:16.339Z,25.40
2018-08-17T08:12:49.782Z,25.40
2018-08-17T08:15:23.250Z,25.50
2018-08-17T08:17:56.719Z,25.50
2018-08-17T08:20:35.634Z,25.50
2018-08-17T08:23:24.895Z,25.50
2018-08-17T08:25:58.717Z,25.50
2018-08-17T08:28:32.168Z,25.50
2018-08-17T08:31:05.712Z,25.70
2018-08-17T08:33:39.159Z,25.80
2018-08-17T08:36:12.616Z,26.20
2018-08-17T08:38:46.067Z,26.40
2018-08-17T08:41:19.514Z,26.40
2018-08-17T08:43:52.983Z,26.50
2018-08-17T08:46:27.739Z,26.70
2018-08-17T08:49:01.630Z,26.90
2018-08-17T08:51:35.659Z,27.00
2018-08-17T08:54:09.122Z,27.00
2018-08-17T08:56:42.600Z,27.20
2018-08-17T08:59:16.075Z,27.10
2018-08-17T09:01:49.743Z,27.10
2018-08-17T09:04:23.199Z,27.00
2018-08-17T09:06:56.631Z,27.10
2018-08-17T09:09:30.103Z,27.30
2018-08-17T09:12:03.575Z,27.30
2018-08-17T09:14:37.012Z,27.30
2018-08-17T09:17:10.435Z,27.50
2018-08-17T09:19:43.875Z,27.70
2018-08-17T09:22:17.376Z,27.60
2018-08-17T09:24:50.889Z,27.80
2018-08-17T09:27:28.178Z,27.70
2018-08-17T09:30:01.756Z,27.60
2018-08-17T09:32:35.175Z,27.60
2018-08-17T09:35:09.347Z,27.60
2018-08-17T09:37:43.225Z,27.70
2018-08-17T09:40:16.728Z,27.70
2018-08-17T09:42:50.150Z,27.60
2018-08-17T09:45:23.587Z,27.70
2018-08-17T09:47:57.047Z,27.70
2018-08-17T09:50:30.550Z,27.80
2018-08-17T09:53:04.511Z,27.90
2018-08-17T09:55:37.962Z,28.00
2018-08-17T09:58:11.400Z,27.80
2018-08-17T10:00:50.281Z,27.90
2018-08-17T10:03:29.156Z,28.00
2018-08-17T10:06:08.039Z,28.30
2018-08-17T10:08:46.730Z,28.30
2018-08-17T10:11:20.167Z,28.30
2018-08-17T10:13:53.583Z,28.40
2018-08-17T10:16:27.036Z,28.30
2018-08-17T10:19:00.456Z,28.30
2018-08-17T10:21:38.925Z,28.50
2018-08-17T10:24:11.996Z,28.80
2018-08-17T10:26:48.972Z,29.00
2018-08-17T10:29:22.912Z,28.80
2018-08-17T10:31:56.983Z,28.50
2018-08-17T10:34:30.430Z,28.80
2018-08-17T10:37:04.002Z,29.00
2018-08-17T10:39:38.499Z,29.00
2018-08-17T10:42:11.965Z,29.00
2018-08-17T10:44:45.416Z,28.80
2018-08-17T10:47:19.387Z,28.90
2018-08-17T10:49:53.751Z,29.00
2018-08-17T10:52:27.328Z,29.10
2018-08-17T10:55:00.779Z,29.10
2018-08-17T10:57:34.355Z,29.30
2018-08-17T11:00:08.903Z,29.20
2018-08-17T11:02:43.116Z,29.30
2018-08-17T11:05:17.954Z,29.40
2018-08-17T11:07:51.380Z,29.30
2018-08-17T11:10:24.845Z,29.30
2018-08-17T11:12:58.279Z,29.10
2018-08-17T11:15:31.740Z,29.20
2018-08-17T11:18:05.227Z,29.30
2018-08-17T11:20:38.704Z,29.30
2018-08-17T11:23:12.124Z,29.10
2018-08-17T11:25:45.575Z,29.30
2018-08-17T11:28:19.015Z,29.70
2018-08-17T11:30:52.483Z,29.70
2018-08-17T11:33:27.661Z,29.50
2018-08-17T11:36:01.119Z,29.70
2018-08-17T11:38:34.551Z,29.60
2018-08-17T11:41:10.058Z,29.70
2018-08-17T11:43:43.478Z,29.70
2018-08-17T11:46:17.012Z,29.90
2018-08-17T11:48:50.446Z,29.80
2018-08-17T11:51:23.910Z,29.80
2018-08-17T11:53:57.371Z,30.10
2018-08-17T11:56:30.873Z,30.20
2018-08-17T11:59:04.335Z,30.40
2018-08-17T12:01:37.772Z,30.20
2018-08-17T12:04:11.200Z,30.20
2018-08-17T12:06:44.664Z,30.20
2018-08-17T12:09:18.092Z,30.20
2018-08-17T12:11:51.615Z,30.20
2018-08-17T12:14:25.036Z,30.20
2018-08-17T12:16:58.475Z,30.40
2018-08-17T12:19:31.891Z,30.50
2018-08-17T12:22:05.347Z,30.30
2018-08-17T12:24:38.863Z,30.50
2018-08-17T12:27:12.240Z,30.60
2018-08-17T12:29:45.683Z,30.60
2018-08-17T12:32:19.156Z,30.50
2018-08-17T12:34:52.754Z,30.40
2018-08-17T12:37:26.190Z,30.60
2018-08-17T12:39:59.683Z,30.70
2018-08-17T12:42:36.075Z,30.80
2018-08-17T12:45:14.806Z,30.80
2018-08-17T12:47:48.255Z,30.80
2018-08-17T12:50:21.695Z,30.70
2018-08-17T12:52:55.153Z,30.60
2018-08-17T12:55:28.585Z,30.80
2018-08-17T12:58:02.090Z,30.90
2018-08-17T13:00:35.502Z,30.80
2018-08-17T13:03:09.328Z,30.90
2018-08-17T13:05:42.759Z,31.10
2018-08-17T13:08:16.220Z,31.00
2018-08-17T13:10:49.719Z,31.00
2018-08-17T13:13:23.142Z,31.00
2018-08-17T13:16:05.358Z,31.10
2018-08-17T13:18:39.058Z,31.30
2018-08-17T13:21:12.486Z,31.10
2018-08-17T13:23:45.935Z,31.10
2018-08-17T13:26:19.364Z,31.20
2018-08-17T13:28:52.812Z,31.30
2018-08-17T13:31:26.273Z,31.40
2018-08-17T13:34:00.180Z,31.50
2018-08-17T13:36:33.640Z,31.50
2018-08-17T13:39:09.263Z,31.40
2018-08-17T13:41:42.713Z,31.40
2018-08-17T13:44:16.215Z,31.00
2018-08-17T13:46:49.663Z,31.10
2018-08-17T13:49:23.112Z,31.20
2018-08-17T13:51:56.555Z,31.10
2018-08-17T13:54:30.038Z,31.10
2018-08-17T13:57:03.480Z,31.10
2018-08-17T13:59:36.927Z,31.10
2018-08-17T14:02:10.486Z,30.90
2018-08-17T14:04:43.954Z,31.10
2018-08-17T14:07:17.475Z,31.00
2018-08-17T14:09:51.134Z,30.80
2018-08-17T14:12:24.603Z,30.80
2018-08-17T14:14:58.088Z,30.80
2018-08-17T14:17:31.544Z,30.90
2018-08-17T14:20:07.719Z,30.90
2018-08-17T14:22:41.180Z,30.90
2018-08-17T14:25:14.654Z,30.90
2018-08-17T14:27:48.113Z,30.80
2018-08-17T14:30:21.582Z,30.80
2018-08-17T14:32:55.015Z,30.80
2018-08-17T14:35:28.490Z,30.90
2018-08-17T14:38:01.944Z,30.90
2018-08-17T14:40:35.403Z,30.90
2018-08-17T14:43:08.859Z,30.80
2018-08-17T14:45:42.296Z,30.80
2018-08-17T14:48:15.743Z,30.90
2018-08-17T14:50:49.261Z,31.10
2018-08-17T14:53:22.800Z,31.10
2018-08-17T14:55:56.276Z,31.10
2018-08-17T14:58:29.738Z,31.10
2018-08-17T15:01:03.266Z,31.20
2018-08-17T15:03:36.709Z,31.10
2018-08-17T15:06:10.232Z,31.10
2018-08-17T15:08:43.659Z,31.10
2018-08-17T15:11:17.102Z,31.10
2018-08-17T15:13:50.536Z,31.10
2018-08-17T15:16:24.048Z,31.00
2018-08-17T15:18:57.475Z,31.10
2018-08-17T15:21:30.966Z,31.20
2018-08-17T15:24:04.463Z,31.30
2018-08-17T15:26:38.026Z,31.30
2018-08-17T15:29:11.391Z,31.20
2018-08-17T15:31:44.997Z,31.20
2018-08-17T15:34:18.427Z,31.20
2018-08-17T15:36:53.142Z,31.30
2018-08-17T15:39:26.562Z,31.30
2018-08-17T15:42:00.036Z,31.30
2018-08-17T15:44:33.467Z,31.40
2018-08-17T15:47:06.988Z,31.50
2018-08-17T15:49:41.304Z,31.40
2018-08-17T15:52:14.761Z,31.30
2018-08-17T15:54:48.183Z,31.40
2018-08-17T15:57:21.643Z,31.40
2018-08-17T15:59:55.092Z,31.40
2018-08-17T16:02:28.572Z,31.50
2018-08-17T16:05:02.011Z,31.50
2018-08-17T16:07:35.481Z,31.50
2018-08-17T16:10:11.527Z,31.50
2018-08-17T16:12:45.554Z,31.50
2018-08-17T16:15:19.048Z,31.60
2018-08-17T16:17:52.519Z,31.60
2018-08-17T16:20:25.975Z,31.60
2018-08-17T16:22:59.396Z,31.60
2018-08-17T16:25:32.830Z,31.50
2018-08-17T16:28:06.258Z,30.70
2018-08-17T16:30:39.739Z,29.80
2018-08-17T16:33:13.172Z,29.10
2018-08-17T16:35:46.615Z,28.90
2018-08-17T16:38:20.055Z,28.90
2018-08-17T16:40:53.830Z,28.50
2018-08-17T16:43:39.558Z,28.40
2018-08-17T16:46:13.486Z,28.20
2018-08-17T16:48:46.988Z,28.10
2018-08-17T16:51:20.411Z,28.10
2018-08-17T16:53:57.274Z,28.20
2018-08-17T16:56:30.860Z,28.20
2018-08-17T16:59:04.546Z,28.30
2018-08-17T17:01:37.874Z,28.20
2018-08-17T17:04:11.308Z,28.10
2018-08-17T17:06:44.767Z,27.90
2018-08-17T17:09:18.241Z,27.80
2018-08-17T17:11:51.679Z,27.80
2018-08-17T17:14:25.095Z,27.50
2018-08-17T17:16:59.638Z,27.50
2018-08-17T17:19:33.060Z,27.30
2018-08-17T17:22:06.850Z,27.40
2018-08-17T17:24:40.304Z,27.20
2018-08-17T17:27:15.012Z,27.20
2018-08-17T17:29:48.458Z,27.40
2018-08-17T17:32:21.927Z,27.50
2018-08-17T17:34:55.359Z,26.60
2018-08-17T17:37:28.799Z,26.60
2018-08-17T17:40:02.262Z,26.70
2018-08-17T17:42:35.704Z,26.80
2018-08-17T17:45:09.148Z,26.80
2018-08-17T17:47:42.590Z,26.60
2018-08-17T17:50:16.007Z,26.40
2018-08-17T17:52:49.468Z,26.70
2018-08-17T17:55:23.254Z,26.80
2018-08-17T17:57:56.696Z,26.80
2018-08-17T18:00:30.147Z,26.90
2018-08-17T18:03:03.642Z,27.00
2018-08-17T18:05:37.079Z,27.10
2018-08-17T18:08:15.991Z,27.10
2018-08-17T18:10:49.684Z,27.00
2018-08-17T18:13:23.127Z,27.10
2018-08-17T18:15:56.642Z,27.10
2018-08-17T18:18:30.148Z,27.20
2018-08-17T18:21:03.611Z,27.30
2018-08-17T18:23:37.062Z,27.40
2018-08-17T18:26:15.943Z,27.30
2018-08-17T18:28:49.387Z,27.00
2018-08-17T18:31:22.857Z,27.00
2018-08-17T18:33:56.311Z,27.20
2018-08-17T18:36:29.753Z,27.30
2018-08-17T18:39:03.563Z,27.30
2018-08-17T18:41:37.014Z,27.30
2018-08-17T18:44:11.031Z,26.70
2018-08-17T18:46:44.558Z,25.90
2018-08-17T18:49:17.931Z,25.70
2018-08-17T18:51:51.498Z,25.50
2018-08-17T18:54:24.940Z,25.20
2018-08-17T18:56:58.363Z,25.20
2018-08-17T18:59:31.822Z,25.60
2018-08-17T19:02:05.323Z,25.40
2018-08-17T19:04:38.770Z,25.40
2018-08-17T19:07:12.202Z,25.40
2018-08-17T19:09:45.667Z,25.50
2018-08-17T19:12:19.110Z,25.40
2018-08-17T19:14:52.561Z,25.30
2018-08-17T19:17:28.594Z,24.80
2018-08-17T19:20:02.048Z,24.30
2018-08-17T19:22:37.327Z,24.40
2018-08-17T19:25:12.804Z,24.20
2018-08-17T19:27:46.227Z,23.60
2018-08-17T19:30:26.142Z,23.20
2018-08-17T19:33:04.083Z,23.10
2018-08-17T19:35:38.521Z,23.60
2018-08-17T19:38:11.991Z,23.90
2018-08-17T19:40:45.452Z,23.90
2018-08-17T19:43:18.883Z,23.80
2018-08-17T19:45:53.489Z,24.10
2018-08-17T19:48:26.882Z,24.20
2018-08-17T19:51:00.396Z,24.00
2018-08-17T19:53:33.835Z,24.30
2018-08-17T19:56:07.321Z,24.00
2018-08-17T19:58:41.221Z,24.20
2018-08-17T20:01:14.659Z,24.10
2018-08-17T20:03:48.071Z,24.10
2018-08-17T20:06:21.559Z,24.10
2018-08-17T20:08:54.987Z,24.00
2018-08-17T20:11:28.427Z,24.00
2018-08-17T20:14:01.856Z,23.90
2018-08-17T20:16:35.345Z,24.10
2018-08-17T20:19:08.852Z,24.10
2018-08-17T20:21:42.287Z,24.10
2018-08-17T20:24:15.727Z,24.20
2018-08-17T20:26:52.228Z,24.30
2018-08-17T20:29:25.575Z,24.30
2018-08-17T20:31:59.092Z,24.30
2018-08-17T20:34:32.524Z,24.30
2018-08-17T20:37:05.975Z,24.30
2018-08-17T20:39:40.574Z,24.20
2018-08-17T20:42:14.042Z,24.00
2018-08-17T20:44:47.467Z,24.00
2018-08-17T20:47:20.955Z,24.00
2018-08-17T20:49:54.394Z,24.00
2018-08-17T20:52:27.955Z,24.00
2018-08-17T20:55:01.434Z,24.00
2018-08-17T20:57:34.851Z,23.90
2018-08-17T21:00:08.326Z,23.90
2018-08-17T21:02:41.794Z,24.10
2018-08-17T21:05:15.685Z,24.10
2018-08-17T21:07:49.602Z,24.20
2018-08-17T21:10:23.088Z,24.20
2018-08-17T21:12:56.540Z,24.20
2018-08-17T21:15:29.987Z,24.20
2018-08-17T21:18:03.423Z,24.00
2018-08-17T21:20:36.896Z,24.00
2018-08-17T21:23:10.368Z,24.00
2018-08-17T21:25:43.806Z,24.00
2018-08-17T21:28:17.232Z,23.90
2018-08-17T21:30:50.699Z,23.90
2018-08-17T21:33:24.140Z,23.90
2018-08-17T21:35:58.288Z,23.80
2018-08-17T21:38:31.723Z,23.70
2018-08-17T21:41:05.298Z,23.50
2018-08-17T21:43:38.723Z,23.40
2018-08-17T21:46:12.339Z,23.30
2018-08-17T21:48:45.776Z,23.40
2018-08-17T21:51:19.282Z,23.60
2018-08-17T21:53:52.735Z,23.50
2018-08-17T21:56:26.215Z,23.60
2018-08-17T21:58:59.643Z,23.70
2018-08-17T22:01:33.112Z,23.60
2018-08-17T22:04:06.576Z,23.40
2018-08-17T22:06:40.014Z,23.10
2018-08-17T22:09:14.471Z,23.30
2018-08-17T22:11:47.899Z,23.40
2018-08-17T22:14:21.315Z,23.40
2018-08-17T22:16:54.758Z,23.30
2018-08-17T22:19:41.492Z,23.30
2018-08-17T22:22:14.949Z,23.20
2018-08-17T22:24:54.447Z,23.20
2018-08-17T22:27:28.966Z,23.30
2018-08-17T22:30:02.448Z,23.30
2018-08-17T22:32:35.940Z,23.30
2018-08-17T22:35:09.437Z,23.30
2018-08-17T22:37:42.878Z,23.30
2018-08-17T22:40:16.319Z,23.10
2018-08-17T22:42:50.581Z,23.00
2018-08-17T22:45:24.025Z,23.00
2018-08-17T22:47:57.520Z,23.20
2018-08-17T22:50:30.983Z,23.20
2018-08-17T22:53:04.550Z,23.20
2018-08-17T22:55:37.979Z,23.10
2018-08-17T22:58:11.428Z,23.00
2018-08-17T23:00:44.864Z,22.90
2018-08-17T23:03:18.326Z,22.90
2018-08-17T23:05:51.762Z,22.90
2018-08-17T23:08:25.231Z,22.70
2018-08-17T23:10:58.654Z,22.30
2018-08-17T23:13:32.103Z,21.90
2018-08-17T23:16:05.560Z,21.90
2018-08-17T23:18:39.027Z,22.00
2018-08-17T23:21:12.478Z,21.90
2018-08-17T23:23:45.982Z,22.00
2018-08-17T23:26:19.419Z,22.20
2018-08-17T23:28:52.858Z,22.40
2018-08-17T23:31:26.343Z,22.30
2018-08-17T23:33:59.799Z,22.40
2018-08-17T23:36:33.227Z,22.40
2018-08-17T23:39:08.877Z,22.50
2018-08-17T23:41:42.298Z,22.30
2018-08-17T23:44:15.742Z,22.00
2018-08-17T23:46:49.174Z,22.00
2018-08-17T23:49:22.635Z,22.00
2018-08-17T23:51:56.081Z,21.80
2018-08-17T23:54:29.540Z,21.60
2018-08-17T23:57:03.035Z,21.70
2018-08-17T23:59:36.521Z,21.80
